createdAt,value
2023-03-27T00:00:13.258Z,49.45
2023-03-27T00:02:41.956Z,49.07
2023-03-27T00:05:12.367Z,48.75
2023-03-27T00:07:41.540Z,49.42
2023-03-27T00:10:10.346Z,49.27
2023-03-27T00:12:39.274Z,49.44
2023-03-27T00:15:08.438Z,49.10
2023-03-27T00:17:36.963Z,48.80
2023-03-27T00:20:06.613Z,48.77
2023-03-27T00:22:35.943Z,48.81
2023-03-27T00:25:04.082Z,48.40
2023-03-27T00:27:32.703Z,48.27
2023-03-27T00:30:01.067Z,48.40
2023-03-27T00:32:29.414Z,48.26
2023-03-27T00:34:57.807Z,48.24
2023-03-27T00:37:26.100Z,48.35
2023-03-27T00:39:55.765Z,48.43
2023-03-27T00:42:24.266Z,48.80
2023-03-27T00:44:52.558Z,48.74
2023-03-27T00:47:24.034Z,47.82
2023-03-27T00:49:52.699Z,47.72
2023-03-27T00:52:21.454Z,48.04
2023-03-27T00:54:50.073Z,47.71
2023-03-27T00:57:22.039Z,47.71
2023-03-27T00:59:55.068Z,47.76
2023-03-27T01:02:24.195Z,48.41
2023-03-27T01:04:52.936Z,48.29
2023-03-27T01:07:22.561Z,48.13
2023-03-27T01:09:51.351Z,48.37
2023-03-27T01:12:40.917Z,48.25
2023-03-27T01:15:21.629Z,47.82
2023-03-27T01:18:04.261Z,48.13
2023-03-27T01:21:12.369Z,47.95
2023-03-27T01:24:11.564Z,47.02
2023-03-27T01:26:57.939Z,47.20
2023-03-27T01:29:39.790Z,46.98
2023-03-27T01:32:50.709Z,46.59
2023-03-27T01:35:33.603Z,47.05
2023-03-27T01:38:42.939Z,47.29
2023-03-27T01:41:15.760Z,46.94
2023-03-27T01:43:52.774Z,47.04
2023-03-27T01:46:26.667Z,46.59
2023-03-27T01:49:00.364Z,46.82
2023-03-27T01:51:34.838Z,47.43
2023-03-27T01:54:10.552Z,46.68
2023-03-27T01:56:41.718Z,47.47
2023-03-27T01:59:11.588Z,47.25
2023-03-27T02:01:41.069Z,47.60
2023-03-27T02:04:14.063Z,48.26
2023-03-27T02:06:44.774Z,48.21
2023-03-27T02:09:15.140Z,48.83
2023-03-27T02:11:45.954Z,48.64
2023-03-27T02:14:14.834Z,48.62
2023-03-27T02:16:46.327Z,49.94
2023-03-27T02:19:20.812Z,50.45
2023-03-27T02:21:49.076Z,51.66
2023-03-27T02:24:18.106Z,51.76
2023-03-27T02:26:52.182Z,52.11
2023-03-27T02:29:32.720Z,52.74
2023-03-27T02:32:11.158Z,51.93
2023-03-27T02:34:49.243Z,52.10
2023-03-27T02:37:21.306Z,52.07
2023-03-27T02:40:33.136Z,51.81
2023-03-27T02:43:33.740Z,51.84
2023-03-27T02:46:06.294Z,51.82
2023-03-27T02:48:38.863Z,51.34
2023-03-27T02:51:09.099Z,51.52
2023-03-27T02:53:39.833Z,51.12
2023-03-27T02:56:09.022Z,50.83
2023-03-27T02:58:40.855Z,50.68
2023-03-27T03:01:17.358Z,51.12
2023-03-27T03:04:07.468Z,50.87
2023-03-27T03:07:07.572Z,50.80
2023-03-27T03:09:40.618Z,51.13
2023-03-27T03:12:09.872Z,51.39
2023-03-27T03:14:47.443Z,51.41
2023-03-27T03:17:16.262Z,51.65
2023-03-27T03:19:46.061Z,51.96
2023-03-27T03:22:14.138Z,51.69
2023-03-27T03:24:43.771Z,51.66
2023-03-27T03:27:14.876Z,50.78
2023-03-27T03:30:00.246Z,49.97
2023-03-27T03:32:30.419Z,49.37
2023-03-27T03:34:58.738Z,49.12
2023-03-27T03:37:28.725Z,49.16
2023-03-27T03:39:59.067Z,48.11
2023-03-27T03:42:26.922Z,47.37
2023-03-27T03:44:54.803Z,47.15
2023-03-27T03:47:25.469Z,46.89
2023-03-27T03:49:53.412Z,46.82
2023-03-27T03:52:21.347Z,46.83
2023-03-27T03:54:49.583Z,46.17
2023-03-27T03:57:18.738Z,46.08
2023-03-27T04:00:01.057Z,46.20
2023-03-27T04:02:46.404Z,46.99
2023-03-27T04:05:17.167Z,47.40
2023-03-27T04:07:45.651Z,47.31
2023-03-27T04:10:38.038Z,47.55
2023-03-27T04:13:09.746Z,47.45
2023-03-27T04:15:44.709Z,47.05
2023-03-27T04:18:20.412Z,47.81
2023-03-27T04:20:50.341Z,47.72
2023-03-27T04:23:20.372Z,48.31
2023-03-27T04:25:49.078Z,48.40
2023-03-27T04:28:22.955Z,48.45
2023-03-27T04:31:01.293Z,48.33
2023-03-27T04:33:30.881Z,48.34
2023-03-27T04:36:17.516Z,48.53
2023-03-27T04:38:54.310Z,48.61
2023-03-27T04:41:22.339Z,49.09
2023-03-27T04:43:50.702Z,49.23
2023-03-27T04:46:18.696Z,50.89
2023-03-27T04:48:53.356Z,51.41
2023-03-27T04:51:33.778Z,51.76
2023-03-27T04:54:04.844Z,51.94
2023-03-27T04:56:33.801Z,51.85
2023-03-27T04:59:03.333Z,51.92
2023-03-27T05:01:31.571Z,52.25
2023-03-27T05:04:19.033Z,51.64
2023-03-27T05:07:13.253Z,52.04
2023-03-27T05:09:42.122Z,51.55
2023-03-27T05:12:10.752Z,50.97
2023-03-27T05:14:49.636Z,49.78
2023-03-27T05:17:44.690Z,49.66
2023-03-27T05:20:16.948Z,50.49
2023-03-27T05:22:44.970Z,50.93
2023-03-27T05:25:42.697Z,51.21
2023-03-27T05:28:14.556Z,51.69
2023-03-27T05:30:47.488Z,52.37
2023-03-27T05:33:17.624Z,52.81
2023-03-27T05:35:48.490Z,53.38
2023-03-27T05:38:16.963Z,53.54
2023-03-27T05:40:57.986Z,53.67
2023-03-27T05:43:26.404Z,53.22
2023-03-27T05:45:54.701Z,54.14
2023-03-27T05:48:23.425Z,54.06
2023-03-27T05:50:53.326Z,55.16
2023-03-27T05:53:28.657Z,55.12
2023-03-27T05:56:32.789Z,54.58
2023-03-27T05:59:03.667Z,54.05
2023-03-27T06:01:35.909Z,54.09
2023-03-27T06:04:04.442Z,53.69
2023-03-27T06:06:53.037Z,53.42
2023-03-27T06:09:21.605Z,53.26
2023-03-27T06:12:10.786Z,52.53
2023-03-27T06:14:40.141Z,52.28
2023-03-27T06:17:34.828Z,52.49
2023-03-27T06:20:11.243Z,52.31
2023-03-27T06:22:42.495Z,52.45
2023-03-27T06:25:10.710Z,52.27
2023-03-27T06:27:39.222Z,51.79
2023-03-27T06:30:07.729Z,51.78
2023-03-27T06:32:37.044Z,52.03
2023-03-27T06:35:11.166Z,51.34
2023-03-27T06:37:56.709Z,51.43
2023-03-27T06:40:28.234Z,51.23
2023-03-27T06:43:01.281Z,51.03
2023-03-27T06:45:37.713Z,50.46
2023-03-27T06:48:24.999Z,51.04
2023-03-27T06:50:57.233Z,49.84
2023-03-27T06:53:28.322Z,49.45
2023-03-27T06:55:58.226Z,49.01
2023-03-27T06:58:28.046Z,49.24
2023-03-27T07:00:57.093Z,48.79
2023-03-27T07:03:43.254Z,49.31
2023-03-27T07:06:29.744Z,49.10
2023-03-27T07:09:05.890Z,49.37
2023-03-27T07:11:34.270Z,49.74
2023-03-27T07:14:08.836Z,50.76
2023-03-27T07:16:36.728Z,50.12
2023-03-27T07:19:05.932Z,50.07
2023-03-27T07:21:36.069Z,50.22
2023-03-27T07:24:06.828Z,50.68
2023-03-27T07:26:38.225Z,50.78
2023-03-27T07:29:22.458Z,51.58
2023-03-27T07:31:58.558Z,52.39
2023-03-27T07:34:41.101Z,53.11
2023-03-27T07:37:18.248Z,53.20
2023-03-27T07:40:07.820Z,53.67
2023-03-27T07:42:36.712Z,54.88
2023-03-27T07:45:08.083Z,55.12
2023-03-27T07:47:36.624Z,55.66
2023-03-27T07:50:05.018Z,56.92
2023-03-27T07:52:34.815Z,57.24
2023-03-27T07:55:07.500Z,57.28
2023-03-27T07:57:58.006Z,57.83
2023-03-27T08:00:30.189Z,56.82
2023-03-27T08:03:10.775Z,56.91
2023-03-27T08:05:44.148Z,56.48
2023-03-27T08:08:16.134Z,56.21
2023-03-27T08:11:04.543Z,55.57
2023-03-27T08:13:37.161Z,54.54
2023-03-27T08:16:09.720Z,54.05
2023-03-27T08:18:38.824Z,53.88
2023-03-27T08:21:09.375Z,54.11
2023-03-27T08:23:39.014Z,54.40
2023-03-27T08:26:28.209Z,54.16
2023-03-27T08:29:04.297Z,54.16
2023-03-27T08:31:33.557Z,53.96
2023-03-27T08:34:03.378Z,54.12
2023-03-27T08:36:41.290Z,54.72
2023-03-27T08:39:09.655Z,55.18
2023-03-27T08:41:50.679Z,55.56
2023-03-27T08:44:27.813Z,55.98
2023-03-27T08:46:57.004Z,56.45
2023-03-27T08:49:28.672Z,56.03
2023-03-27T08:52:22.813Z,55.10
2023-03-27T08:54:58.378Z,55.14
2023-03-27T08:57:37.405Z,54.04
2023-03-27T09:00:22.801Z,49.88
2023-03-27T09:03:00.250Z,48.57
2023-03-27T09:05:35.591Z,48.23
2023-03-27T09:08:10.384Z,48.02
2023-03-27T09:10:44.747Z,49.40
2023-03-27T09:13:34.936Z,49.26
2023-03-27T09:16:05.736Z,48.64
2023-03-27T09:18:36.964Z,48.05
2023-03-27T09:21:16.100Z,48.16
2023-03-27T09:23:46.343Z,48.47
2023-03-27T09:26:44.453Z,46.96
2023-03-27T09:29:39.933Z,46.89
2023-03-27T09:32:28.035Z,47.71
2023-03-27T09:35:02.003Z,47.42
2023-03-27T09:37:30.926Z,48.06
2023-03-27T09:40:01.341Z,47.94
2023-03-27T09:42:38.721Z,46.50
2023-03-27T09:45:14.047Z,46.37
2023-03-27T09:48:01.635Z,45.95
2023-03-27T09:50:44.612Z,46.81
2023-03-27T09:53:59.506Z,46.87
2023-03-27T09:56:37.664Z,46.95
2023-03-27T09:59:11.703Z,46.25
2023-03-27T10:01:48.249Z,45.81
2023-03-27T10:04:22.160Z,45.47
2023-03-27T10:07:01.699Z,45.35
2023-03-27T10:10:09.069Z,45.09
2023-03-27T10:13:01.233Z,45.07
2023-03-27T10:15:39.056Z,45.75
2023-03-27T10:18:25.860Z,45.20
2023-03-27T10:20:58.757Z,45.56
2023-03-27T10:23:30.817Z,45.91
2023-03-27T10:26:01.571Z,45.17
2023-03-27T10:28:45.370Z,43.81
2023-03-27T10:31:33.401Z,42.46
2023-03-27T10:34:42.151Z,43.15
2023-03-27T10:37:36.669Z,43.37
2023-03-27T10:40:40.696Z,43.86
2023-03-27T10:43:25.620Z,41.14
2023-03-27T10:45:57.767Z,41.10
2023-03-27T10:48:38.310Z,41.54
2023-03-27T10:51:17.163Z,41.69
2023-03-27T10:54:06.750Z,41.86
2023-03-27T10:56:58.325Z,42.72
2023-03-27T10:59:41.512Z,43.53
2023-03-27T11:02:21.746Z,44.37
2023-03-27T11:05:02.612Z,42.31
2023-03-27T11:07:41.141Z,42.25
2023-03-27T11:10:22.321Z,42.74
2023-03-27T11:12:58.396Z,42.16
2023-03-27T11:15:33.341Z,44.33
2023-03-27T11:18:10.181Z,44.12
2023-03-27T11:20:51.260Z,49.79
2023-03-27T11:23:37.266Z,54.06
2023-03-27T11:26:33.731Z,53.85
2023-03-27T11:29:09.574Z,52.91
2023-03-27T11:31:47.859Z,53.23
2023-03-27T11:34:34.410Z,53.79
2023-03-27T11:37:32.848Z,55.04
2023-03-27T11:40:10.291Z,54.33
2023-03-27T11:42:40.706Z,52.69
2023-03-27T11:45:13.218Z,52.51
2023-03-27T11:48:03.414Z,53.58
2023-03-27T11:50:49.427Z,52.25
2023-03-27T11:53:38.160Z,51.89
2023-03-27T11:56:31.826Z,50.46
2023-03-27T11:59:35.853Z,46.78
2023-03-27T12:02:20.679Z,45.31
2023-03-27T12:04:56.809Z,45.92
2023-03-27T12:07:54.221Z,43.70
2023-03-27T12:10:31.824Z,41.50
2023-03-27T12:13:58.129Z,41.55
2023-03-27T12:16:49.688Z,43.42
2023-03-27T12:19:41.936Z,44.38
2023-03-27T12:22:31.518Z,44.41
2023-03-27T12:25:29.146Z,44.26
2023-03-27T12:28:52.071Z,43.18
2023-03-27T12:31:54.087Z,43.21
2023-03-27T12:34:37.406Z,44.66
2023-03-27T12:37:10.612Z,43.91
2023-03-27T12:39:50.733Z,44.91
2023-03-27T12:42:43.954Z,46.24
2023-03-27T12:45:17.996Z,43.66
2023-03-27T12:48:16.364Z,44.40
2023-03-27T12:50:48.384Z,44.59
2023-03-27T12:53:50.524Z,44.43
2023-03-27T12:56:36.089Z,43.58
2023-03-27T12:59:19.345Z,44.28
2023-03-27T13:02:11.957Z,44.28
2023-03-27T13:04:59.553Z,43.78
2023-03-27T13:07:35.886Z,44.73
2023-03-27T13:10:25.882Z,45.83
2023-03-27T13:13:10.693Z,45.94
2023-03-27T13:15:52.734Z,46.94
2023-03-27T13:18:36.102Z,46.90
2023-03-27T13:21:15.038Z,47.48
2023-03-27T13:23:49.013Z,46.04
2023-03-27T13:26:39.158Z,50.67
2023-03-27T13:29:14.222Z,53.49
2023-03-27T13:32:12.817Z,54.81
2023-03-27T13:35:01.491Z,56.21
2023-03-27T13:37:49.275Z,56.82
2023-03-27T13:40:27.399Z,55.41
2023-03-27T13:43:13.735Z,52.09
2023-03-27T13:45:46.836Z,50.09
2023-03-27T13:48:45.226Z,49.04
2023-03-27T13:51:24.681Z,46.86
2023-03-27T13:54:10.752Z,46.13
2023-03-27T13:56:53.136Z,46.26
2023-03-27T13:59:46.416Z,47.04
2023-03-27T14:02:36.292Z,45.90
2023-03-27T14:05:20.307Z,44.44
2023-03-27T14:08:21.027Z,44.52
2023-03-27T14:11:28.662Z,44.87
2023-03-27T14:14:21.757Z,45.86
2023-03-27T14:17:17.780Z,44.36
2023-03-27T14:20:14.680Z,43.42
2023-03-27T14:22:49.477Z,40.28
2023-03-27T14:25:25.280Z,40.70
2023-03-27T14:27:59.552Z,41.13
2023-03-27T14:30:31.604Z,41.25
2023-03-27T14:33:20.345Z,41.88
2023-03-27T14:35:55.729Z,42.14
2023-03-27T14:38:26.079Z,44.29
2023-03-27T14:40:56.998Z,47.13
2023-03-27T14:43:45.628Z,48.21
2023-03-27T14:46:16.142Z,48.00
2023-03-27T14:48:46.106Z,48.32
2023-03-27T14:51:15.575Z,47.75
2023-03-27T14:53:45.112Z,47.35
2023-03-27T14:56:25.931Z,46.00
2023-03-27T14:59:20.641Z,43.84
2023-03-27T15:01:56.728Z,43.34
2023-03-27T15:04:25.717Z,42.29
2023-03-27T15:07:14.422Z,43.26
2023-03-27T15:10:02.035Z,43.34
2023-03-27T15:12:50.028Z,43.50
2023-03-27T15:15:26.356Z,43.06
2023-03-27T15:17:59.999Z,42.83
2023-03-27T15:20:30.457Z,43.08
2023-03-27T15:23:01.471Z,43.60
2023-03-27T15:25:34.057Z,43.55
2023-03-27T15:28:06.471Z,43.97
2023-03-27T15:30:37.612Z,43.87
2023-03-27T15:33:09.188Z,43.34
2023-03-27T15:35:40.272Z,44.75
2023-03-27T15:38:12.885Z,46.16
2023-03-27T15:40:43.373Z,47.87
2023-03-27T15:43:22.124Z,48.48
2023-03-27T15:46:11.073Z,48.21
2023-03-27T15:48:44.099Z,48.43
2023-03-27T15:51:13.326Z,48.09
2023-03-27T15:53:42.103Z,48.52
2023-03-27T15:56:17.921Z,48.75
2023-03-27T15:58:47.882Z,48.79
2023-03-27T16:01:23.980Z,49.19
2023-03-27T16:03:54.358Z,49.55
2023-03-27T16:06:26.690Z,49.87
2023-03-27T16:08:55.055Z,50.08
2023-03-27T16:11:36.788Z,50.40
2023-03-27T16:14:05.098Z,49.42
2023-03-27T16:16:34.266Z,47.20
2023-03-27T16:19:04.627Z,45.45
2023-03-27T16:21:36.110Z,44.67
2023-03-27T16:24:04.083Z,45.15
2023-03-27T16:26:32.686Z,45.07
2023-03-27T16:29:02.622Z,44.92
2023-03-27T16:31:30.569Z,45.12
2023-03-27T16:33:58.801Z,45.39
2023-03-27T16:36:30.754Z,46.25
2023-03-27T16:38:58.714Z,46.47
2023-03-27T16:41:26.510Z,46.29
2023-03-27T16:43:54.399Z,45.79
2023-03-27T16:46:23.390Z,45.27
2023-03-27T16:48:52.362Z,44.24
2023-03-27T16:51:20.756Z,43.23
2023-03-27T16:53:50.124Z,42.63
2023-03-27T16:56:17.964Z,43.21
2023-03-27T16:58:46.302Z,43.15
2023-03-27T17:01:14.483Z,44.17
2023-03-27T17:03:42.232Z,44.82
2023-03-27T17:06:11.431Z,44.66
2023-03-27T17:08:39.656Z,45.58
2023-03-27T17:11:09.865Z,46.86
2023-03-27T17:13:38.149Z,47.90
2023-03-27T17:16:07.544Z,47.83
2023-03-27T17:18:36.454Z,47.31
2023-03-27T17:21:04.557Z,47.20
2023-03-27T17:23:32.679Z,46.12
2023-03-27T17:26:00.864Z,45.92
2023-03-27T17:28:30.051Z,45.70
2023-03-27T17:31:04.621Z,46.27
2023-03-27T17:33:33.070Z,46.20
2023-03-27T17:36:01.966Z,46.04
2023-03-27T17:38:31.007Z,46.24
2023-03-27T17:40:59.144Z,45.32
2023-03-27T17:43:26.960Z,44.82
2023-03-27T17:45:56.909Z,44.48
2023-03-27T17:48:25.135Z,44.15
2023-03-27T17:51:07.383Z,44.35
2023-03-27T17:53:36.889Z,44.93
2023-03-27T17:56:05.416Z,45.63
2023-03-27T17:58:34.410Z,47.08
2023-03-27T18:01:12.597Z,48.65
2023-03-27T18:03:40.540Z,49.03
2023-03-27T18:06:08.642Z,49.39
2023-03-27T18:08:36.577Z,49.11
2023-03-27T18:11:07.937Z,49.58
2023-03-27T18:13:35.874Z,50.09
2023-03-27T18:16:07.024Z,50.14
2023-03-27T18:18:35.479Z,50.89
2023-03-27T18:21:04.639Z,50.68
2023-03-27T18:23:32.956Z,50.17
2023-03-27T18:26:03.497Z,50.01
2023-03-27T18:28:31.334Z,49.38
2023-03-27T18:31:00.413Z,48.90
2023-03-27T18:33:29.728Z,49.15
2023-03-27T18:35:58.490Z,47.86
2023-03-27T18:38:27.018Z,47.79
2023-03-27T18:40:55.980Z,47.79
2023-03-27T18:43:24.807Z,47.78
2023-03-27T18:45:56.974Z,48.12
2023-03-27T18:48:25.421Z,48.21
2023-03-27T18:50:55.751Z,48.11
2023-03-27T18:53:24.441Z,48.20
2023-03-27T18:55:53.039Z,48.22
2023-03-27T18:58:21.483Z,47.88
2023-03-27T19:00:49.655Z,47.82
2023-03-27T19:03:20.068Z,47.43
2023-03-27T19:05:48.936Z,47.50
2023-03-27T19:08:18.768Z,48.00
2023-03-27T19:10:46.964Z,48.20
2023-03-27T19:13:35.051Z,48.46
2023-03-27T19:16:18.004Z,48.20
2023-03-27T19:19:04.229Z,48.30
2023-03-27T19:21:55.524Z,48.11
2023-03-27T19:24:41.713Z,47.91
2023-03-27T19:27:23.548Z,47.62
2023-03-27T19:29:52.426Z,47.60
2023-03-27T19:32:20.250Z,47.58
2023-03-27T19:34:48.356Z,47.66
2023-03-27T19:37:16.283Z,47.21
2023-03-27T19:39:45.813Z,48.16
2023-03-27T19:42:14.261Z,48.58
2023-03-27T19:44:42.757Z,49.13
2023-03-27T19:47:10.966Z,48.69
2023-03-27T19:49:38.864Z,49.03
2023-03-27T19:52:12.866Z,49.46
2023-03-27T19:54:40.809Z,49.56
2023-03-27T19:57:10.048Z,49.11
2023-03-27T19:59:37.867Z,49.17
2023-03-27T20:02:05.815Z,48.64
2023-03-27T20:04:33.861Z,48.92
2023-03-27T20:07:02.825Z,48.64
2023-03-27T20:09:30.873Z,49.59
2023-03-27T20:11:58.707Z,49.08
2023-03-27T20:14:28.478Z,49.12
2023-03-27T20:16:56.528Z,49.81
2023-03-27T20:19:30.270Z,50.35
2023-03-27T20:22:00.385Z,51.79
2023-03-27T20:24:29.359Z,51.77
2023-03-27T20:27:00.466Z,51.50
2023-03-27T20:29:29.662Z,51.26
2023-03-27T20:31:57.782Z,51.29
2023-03-27T20:34:25.687Z,51.43
2023-03-27T20:36:54.895Z,51.93
2023-03-27T20:39:48.688Z,53.75
2023-03-27T20:42:22.867Z,54.04
2023-03-27T20:44:55.314Z,54.64
2023-03-27T20:47:23.285Z,55.50
2023-03-27T20:49:51.287Z,55.27
2023-03-27T20:52:19.982Z,54.72
2023-03-27T20:54:48.168Z,54.48
2023-03-27T20:57:18.904Z,53.54
2023-03-27T20:59:48.293Z,54.04
2023-03-27T21:02:18.523Z,53.22
2023-03-27T21:04:46.756Z,53.46
2023-03-27T21:07:15.777Z,54.46
2023-03-27T21:09:45.836Z,54.79
2023-03-27T21:12:13.826Z,54.58
2023-03-27T21:14:41.648Z,54.06
2023-03-27T21:17:12.192Z,53.11
2023-03-27T21:19:41.322Z,52.67
2023-03-27T21:22:09.138Z,52.86
2023-03-27T21:24:37.024Z,53.30
2023-03-27T21:27:05.186Z,53.52
2023-03-27T21:29:32.920Z,53.18
2023-03-27T21:32:00.682Z,53.93
2023-03-27T21:34:28.576Z,53.38
2023-03-27T21:36:58.310Z,54.02
2023-03-27T21:39:26.240Z,53.95
2023-03-27T21:41:54.050Z,53.25
2023-03-27T21:44:21.780Z,53.30
2023-03-27T21:46:49.755Z,53.43
2023-03-27T21:49:17.699Z,54.35
2023-03-27T21:51:45.665Z,54.27
2023-03-27T21:54:14.845Z,54.87
2023-03-27T21:56:42.808Z,53.80
2023-03-27T21:59:10.846Z,52.52
2023-03-27T22:01:38.840Z,52.31
2023-03-27T22:04:06.751Z,51.48
2023-03-27T22:06:34.810Z,51.57
2023-03-27T22:09:02.684Z,51.44
2023-03-27T22:11:31.900Z,50.82
2023-03-27T22:14:00.596Z,50.46
2023-03-27T22:16:28.446Z,50.20
2023-03-27T22:18:56.981Z,49.43
2023-03-27T22:21:25.852Z,49.42
2023-03-27T22:23:54.855Z,49.38
2023-03-27T22:26:23.791Z,48.97
2023-03-27T22:28:53.330Z,49.26
2023-03-27T22:31:21.263Z,49.15
2023-03-27T22:33:49.341Z,49.22
2023-03-27T22:36:17.482Z,49.25
2023-03-27T22:38:45.152Z,48.83
2023-03-27T22:41:13.537Z,48.30
2023-03-27T22:43:41.725Z,47.96
2023-03-27T22:46:12.461Z,47.26
2023-03-27T22:48:40.336Z,47.44
2023-03-27T22:51:08.826Z,47.27
2023-03-27T22:53:37.233Z,47.45
2023-03-27T22:56:05.422Z,46.80
2023-03-27T22:58:33.432Z,47.54
2023-03-27T23:01:01.618Z,47.68
2023-03-27T23:03:31.222Z,47.17
2023-03-27T23:05:59.678Z,47.54
2023-03-27T23:08:28.568Z,47.73
2023-03-27T23:10:57.656Z,47.71
2023-03-27T23:13:25.707Z,47.96
2023-03-27T23:15:54.117Z,47.73
2023-03-27T23:18:24.553Z,48.44
2023-03-27T23:20:57.641Z,48.13
2023-03-27T23:23:25.508Z,48.53
2023-03-27T23:25:53.529Z,48.98
2023-03-27T23:28:21.532Z,49.53
2023-03-27T23:30:56.521Z,49.70
2023-03-27T23:33:25.309Z,49.77
2023-03-27T23:35:53.868Z,49.34
2023-03-27T23:38:23.057Z,50.04
2023-03-27T23:40:55.814Z,50.09
2023-03-27T23:43:23.604Z,50.45
2023-03-27T23:45:51.336Z,49.91
2023-03-27T23:48:19.170Z,49.86
2023-03-27T23:50:47.104Z,49.86
2023-03-27T23:53:15.082Z,49.31
2023-03-27T23:55:44.398Z,48.72
2023-03-27T23:58:12.238Z,47.99
